METAR AND TAF INFORMATION
METAR FOR KDFW
ADDS - METARS form results

(1933 UTC 31 January 2023)
Data provider http://aviationweather.gov/metar/data/
 
METAR text: KDFW 311916Z 33017KT 2SM -FZDZPL OVC011 M03/M05 A3035 RMK AO2 FZDZB09PLB09 P0000 I1001 T10331050
Conditions at: KDFW (DALLAS/FT WORTH , TX, US) observed 1916 UTC 31 January 2023
Temperature: -3.3°C (26°F)
Dewpoint: -5.0°C (23°F) [RH = 88%]
Pressure (altimeter): 30.35 inches Hg (1027.9 mb)
Winds: from the NNW (330 degrees) at 20 MPH (17 knots; 8.7 m/s)
Visibility: 2.00 miles (3.22 km)
Ceiling: 1100 feet AGL
Clouds: overcast cloud deck at 1100 feet AGL
Weather: -FZDZ PL  (light freezing drizzle, moderate ice pellets)

METAR text: KDFW 311912Z 33014KT 3SM -FZDZPL OVC012 M03/M05 A3035 RMK AO2 FZDZB09PLB09 P0000 I1000 T10331050
Conditions at: KDFW (DALLAS/FT WORTH , TX, US) observed 1912 UTC 31 January 2023
Temperature: -3.3°C (26°F)
Dewpoint: -5.0°C (23°F) [RH = 88%]
Pressure (altimeter): 30.35 inches Hg (1027.9 mb)
Winds: from the NNW (330 degrees) at 16 MPH (14 knots; 7.2 m/s)
Visibility: 3 miles ( 5 km)
Ceiling: 1200 feet AGL
Clouds: overcast cloud deck at 1200 feet AGL
Weather: -FZDZ PL  (light freezing drizzle, moderate ice pellets)

METAR text: KDFW 311853Z 35015KT 6SM BR OVC012 M03/M06 A3035 RMK AO2 PRESFR SLP281 FZRAB20E35PLB20E35 P0000 I1000 T10331056
Conditions at: KDFW (DALLAS/FT WORTH , TX, US) observed 1853 UTC 31 January 2023
Temperature: -3.3°C (26°F)
Dewpoint: -5.6°C (22°F) [RH = 84%]
Pressure (altimeter): 30.35 inches Hg (1027.9 mb)
[Sea-level pressure: 1028.1 mb]
Winds: from the N (350 degrees) at 17 MPH (15 knots; 7.7 m/s)
Visibility: 6 miles (10 km)
Ceiling: 1200 feet AGL
Clouds: overcast cloud deck at 1200 feet AGL
Weather: BR  (mist)

METAR text: KDFW 311837Z 33015KT 10SM OVC012 M03/M06 A3038 RMK AO2 FZRAB20E35PLB20E35 P0000 I1000 T10281056
Conditions at: KDFW (DALLAS/FT WORTH , TX, US) observed 1837 UTC 31 January 2023
Temperature: -2.8°C (27°F)
Dewpoint: -5.6°C (22°F) [RH = 81%]
Pressure (altimeter): 30.38 inches Hg (1028.9 mb)
Winds: from the NNW (330 degrees) at 17 MPH (15 knots; 7.7 m/s)
Visibility: 10 or more miles (16+ km)
Ceiling: 1200 feet AGL
Clouds: overcast cloud deck at 1200 feet AGL
Weather: no significant weather observed at this time

Forecast for: KDFW (DALLAS/FT WORTH , TX, US)
Text: KDFW 311725Z 3118/0124 36013KT P6SM -FZDZ OVC015
Forecast period: 1800 UTC 31 January 2023 to 0000 UTC 01 February 2023
Forecast type: FROM: standard forecast or significant change
Winds: from the N (360 degrees) at 15 MPH (13 knots; 6.7 m/s)
Visibility: 6 or more miles (10+ km)
Ceiling: 1500 feet AGL
Clouds: overcast cloud deck at 1500 feet AGL
Weather: -FZDZ  (light freezing drizzle)
Text: FM010000 36008KT P6SM OVC025
Forecast period: 0000 to 1500 UTC 01 February 2023
Forecast type: FROM: standard forecast or significant change
Winds: from the N (360 degrees) at 9 MPH (8 knots; 4.1 m/s)
Visibility: 6 or more miles (10+ km)
Ceiling: 2500 feet AGL
Clouds: overcast cloud deck at 2500 feet AGL
Weather: no significant weather forecast for this period
Text: FM011500 02006KT P6SM -FZRA OVC015
Forecast period: 1500 UTC 01 February 2023 to 0000 UTC 02 February 2023
Forecast type: FROM: standard forecast or significant change
Winds: from the NNE (20 degrees) at 7 MPH (6 knots; 3.1 m/s)
Visibility: 6 or more miles (10+ km)
Ceiling: 1500 feet AGL
Clouds: overcast cloud deck at 1500 feet AGL
Weather: -FZRA  (light freezing rain)

 AIRPORT MAP

 RUNWAY INFORMATION
Runway 13L Runway length 9000 ft Runway width 200 ft
Runway elevation 550 ft Runway displaced threshold 625 ft Runway heading 135
Runway 31R Runway length 9000 ft Runway width 200 ft
Runway elevation 508 ft Runway displaced threshold 0 ft Runway heading 315
Runway 13R Runway length 9301 ft Runway width 150 ft
Runway elevation 591 ft Runway displaced threshold 0 ft Runway heading 139
Runway 31L Runway length 9301 ft Runway width 150 ft
Runway elevation 577 ft Runway displaced threshold 0 ft Runway heading 319
Runway 17C Runway length 13401 ft Runway width 150 ft
Runway elevation 562 ft Runway displaced threshold 0 ft Runway heading 180
Runway 35C Runway length 13401 ft Runway width 150 ft
Runway elevation 562 ft Runway displaced threshold 0 ft Runway heading 0
Runway 17L Runway length 8500 ft Runway width 150 ft
Runway elevation 524 ft Runway displaced threshold 0 ft Runway heading 180
Runway 35R Runway length 8500 ft Runway width 150 ft
Runway elevation 575 ft Runway displaced threshold 0 ft Runway heading 0
Runway 17R Runway length 13401 ft Runway width 200 ft
Runway elevation 567 ft Runway displaced threshold 0 ft Runway heading 180
Runway 35L Runway length 13401 ft Runway width 200 ft
Runway elevation 563 ft Runway displaced threshold 0 ft Runway heading 0
Runway 18L Runway length 13400 ft Runway width 200 ft
Runway elevation 602 ft Runway displaced threshold 0 ft Runway heading 180
Runway 36R Runway length 13400 ft Runway width 200 ft
Runway elevation 575 ft Runway displaced threshold 0 ft Runway heading 0
Runway 18R Runway length 13400 ft Runway width 150 ft
Runway elevation 607 ft Runway displaced threshold 0 ft Runway heading 180
Runway 36L Runway length 13400 ft Runway width 150 ft
Runway elevation 582 ft Runway displaced threshold 0 ft Runway heading 0

 AIRPORT FREQUENCIES
Type APP Name RGNL APP Frequency 28.465 MHZ
Type APP Name RGNL APP Frequency 119.875 MHZ
Type ATIS Name ATIS Frequency 123.775 MHZ
Type CLD Name CLNC DEL Frequency 128.25 MHZ
Type DEP Name RGNL DEP Frequency 31.985 MHZ
Type DEP Name RGNL DEP Frequency 118.55 MHZ
Type GND Name RGNL GND Frequency 121.65 MHZ
Type TWR Name RGNL TWR Frequency 124.15 MHZ
Type UNIC Name UNICOM Frequency 122.95 MHZ

 AIRPORT NEAR NAVIGATION AIDS
Type NDB Name Jiffy Frequency 219 KHZ



Air Greece virtual AIrline - All rights reserved 2018 - Powered by Virtual Airlines Manager [v2.6.2]